createdAt,value
2022-12-31T00:00:04.694Z,576.6
2022-12-31T00:01:43.441Z,573.2
2022-12-31T00:03:22.183Z,576.7
2022-12-31T00:05:32.940Z,580
2022-12-31T00:07:28.483Z,572.3
2022-12-31T00:08:35.041Z,577.4
2022-12-31T00:09:41.655Z,579.4
2022-12-31T00:10:48.159Z,579.2
2022-12-31T00:11:54.732Z,577.3
2022-12-31T00:13:01.284Z,577
2022-12-31T00:14:07.866Z,578.4
2022-12-31T00:15:14.441Z,576.4
2022-12-31T00:16:20.966Z,577.4
2022-12-31T00:17:27.533Z,581.7
2022-12-31T00:18:34.272Z,574.9
2022-12-31T00:19:40.688Z,577.9
2022-12-31T00:20:47.217Z,579
2022-12-31T00:21:53.772Z,574.7
2022-12-31T00:23:00.348Z,576.5
2022-12-31T00:24:06.896Z,575.9
2022-12-31T00:25:13.483Z,576.7
2022-12-31T00:26:20.018Z,581.5
2022-12-31T00:27:26.571Z,580.6
2022-12-31T00:28:33.140Z,579.9
2022-12-31T00:29:39.698Z,579.3
2022-12-31T00:30:46.280Z,576.9
2022-12-31T00:31:52.833Z,580.9
2022-12-31T00:32:59.390Z,580.3
2022-12-31T00:34:05.939Z,579.7
2022-12-31T00:35:12.870Z,575.8
2022-12-31T00:36:19.559Z,578.5
2022-12-31T00:37:26.441Z,577.1
2022-12-31T00:38:33.143Z,576.8
2022-12-31T00:39:39.952Z,580.2
2022-12-31T00:40:46.736Z,577.8
2022-12-31T00:41:53.537Z,580.3
2022-12-31T00:43:00.335Z,575.3
2022-12-31T00:44:07.190Z,577.7
2022-12-31T00:45:13.934Z,576.5
2022-12-31T00:46:20.723Z,578.6
2022-12-31T00:47:27.521Z,580.1
2022-12-31T00:48:34.323Z,574.2
2022-12-31T00:51:14.561Z,578.2
2022-12-31T00:52:53.314Z,579.2
2022-12-31T00:54:32.060Z,579.1
2022-12-31T00:56:10.788Z,580.2
2022-12-31T00:57:18.070Z,577.9
2022-12-31T00:58:25.344Z,575.6
2022-12-31T01:00:04.094Z,574.3
2022-12-31T01:01:42.912Z,577.9
2022-12-31T01:03:21.577Z,574.6
2022-12-31T01:05:00.352Z,577.2
2022-12-31T01:06:39.109Z,572.3
2022-12-31T01:08:17.829Z,580.3
2022-12-31T01:09:56.559Z,579.2
2022-12-31T01:13:46.065Z,577.6
2022-12-31T01:14:52.771Z,579.8
2022-12-31T01:15:59.259Z,583.1
2022-12-31T01:17:05.814Z,577
2022-12-31T01:18:12.348Z,576.8
2022-12-31T01:19:18.912Z,579
2022-12-31T01:20:25.470Z,579.6
2022-12-31T01:21:32.029Z,579.7
2022-12-31T01:22:38.585Z,579.8
2022-12-31T01:23:45.157Z,579.9
2022-12-31T01:24:51.717Z,577.1
2022-12-31T01:25:58.295Z,578.3
2022-12-31T01:27:04.826Z,577.4
2022-12-31T01:28:11.396Z,583.1
2022-12-31T01:29:17.952Z,578
2022-12-31T01:30:24.552Z,579
2022-12-31T01:31:31.081Z,582.7
2022-12-31T01:32:37.641Z,577.5
2022-12-31T01:33:44.213Z,579.3
2022-12-31T01:34:50.777Z,577.8
2022-12-31T01:35:57.330Z,579.6
2022-12-31T01:37:03.894Z,576.4
2022-12-31T01:38:10.455Z,580.6
2022-12-31T01:39:17.020Z,579.6
2022-12-31T01:40:23.654Z,580.6
2022-12-31T01:41:30.168Z,579.6
2022-12-31T01:42:36.907Z,579.3
2022-12-31T01:43:43.684Z,580.4
2022-12-31T01:44:50.567Z,578.4
2022-12-31T01:45:57.298Z,576.4
2022-12-31T01:47:04.102Z,582.3
2022-12-31T01:48:10.908Z,578
2022-12-31T01:49:17.710Z,581
2022-12-31T01:50:24.510Z,578.9
2022-12-31T01:51:31.319Z,575.5
2022-12-31T01:52:38.124Z,580
2022-12-31T01:53:44.921Z,579.9
2022-12-31T01:54:51.737Z,577.4
2022-12-31T01:55:58.643Z,578.2
2022-12-31T01:58:37.067Z,579.4
2022-12-31T02:00:15.866Z,580.1
2022-12-31T02:01:54.563Z,579.4
2022-12-31T02:03:33.311Z,580.2
2022-12-31T02:04:40.588Z,580.9
2022-12-31T02:05:47.862Z,577.2
2022-12-31T02:07:26.635Z,576.3
2022-12-31T02:09:05.362Z,579.7
2022-12-31T02:10:44.116Z,579
2022-12-31T02:12:22.860Z,575.2
2022-12-31T02:14:01.606Z,578.9
2022-12-31T02:15:40.404Z,579.3
2022-12-31T02:17:19.119Z,574
2022-12-31T02:21:08.585Z,577.5
2022-12-31T02:22:15.425Z,580.5
2022-12-31T02:23:22.248Z,577.7
2022-12-31T02:24:29.211Z,580.3
2022-12-31T02:25:35.848Z,578.5
2022-12-31T02:26:42.645Z,578.4
2022-12-31T02:27:49.455Z,580.2
2022-12-31T02:28:56.328Z,580.5
2022-12-31T02:30:03.074Z,578.6
2022-12-31T02:31:09.867Z,578.8
2022-12-31T02:32:16.684Z,578.4
2022-12-31T02:33:23.525Z,576.9
2022-12-31T02:34:30.279Z,579.3
2022-12-31T02:35:37.087Z,579.9
2022-12-31T02:36:43.899Z,580.2
2022-12-31T02:37:50.692Z,583.9
2022-12-31T02:38:57.743Z,580.8
2022-12-31T02:40:04.302Z,579.1
2022-12-31T02:41:11.121Z,578.3
2022-12-31T02:42:17.915Z,583.9
2022-12-31T02:43:24.727Z,577
2022-12-31T02:44:31.526Z,578.6
2022-12-31T02:45:38.331Z,576.3
2022-12-31T02:46:45.142Z,580.4
2022-12-31T02:47:51.946Z,581
2022-12-31T02:48:58.754Z,580.3
2022-12-31T02:51:10.970Z,579.9
2022-12-31T02:52:49.670Z,577.9
2022-12-31T02:54:01.607Z,581.7
2022-12-31T02:55:08.868Z,576.3
2022-12-31T02:56:47.568Z,578.4
2022-12-31T02:58:26.266Z,579.9
2022-12-31T03:00:04.959Z,578.4
2022-12-31T03:01:43.725Z,582.1
2022-12-31T03:03:22.472Z,581.5
2022-12-31T03:05:01.226Z,580.7
2022-12-31T03:06:39.920Z,583.7
2022-12-31T03:08:18.677Z,582.4
2022-12-31T03:09:57.436Z,582.3
2022-12-31T03:11:37.226Z,581.8
2022-12-31T03:14:52.881Z,579.9
2022-12-31T03:15:59.450Z,580.8
2022-12-31T03:17:05.995Z,579.9
2022-12-31T03:18:12.589Z,584.8
2022-12-31T03:19:19.136Z,582.6
2022-12-31T03:20:25.698Z,580.7
2022-12-31T03:21:32.265Z,580.1
2022-12-31T03:22:38.837Z,577.9
2022-12-31T03:23:45.409Z,578.9
2022-12-31T03:24:51.965Z,580.3
2022-12-31T03:25:58.544Z,584.1
2022-12-31T03:27:05.116Z,581
2022-12-31T03:28:11.679Z,581.8
2022-12-31T03:29:18.250Z,579.2
2022-12-31T03:30:24.817Z,580.6
2022-12-31T03:31:31.392Z,580.1
2022-12-31T03:32:37.970Z,580.2
2022-12-31T03:33:44.536Z,579.6
2022-12-31T03:34:51.104Z,581.9
2022-12-31T03:35:57.672Z,580.3
2022-12-31T03:37:04.269Z,582.3
2022-12-31T03:38:10.817Z,578.6
2022-12-31T03:39:17.383Z,580.4
2022-12-31T03:40:23.961Z,583
2022-12-31T03:41:30.523Z,581.8
2022-12-31T03:42:37.270Z,578.5
2022-12-31T03:43:44.078Z,580.4
2022-12-31T03:44:50.879Z,578.5
2022-12-31T03:45:57.675Z,579.3
2022-12-31T03:47:04.484Z,579.4
2022-12-31T03:48:11.292Z,579
2022-12-31T03:49:18.085Z,578.6
2022-12-31T03:50:24.892Z,576.2
2022-12-31T03:51:31.699Z,575.3
2022-12-31T03:52:38.504Z,580.7
2022-12-31T03:53:45.336Z,581.3
2022-12-31T03:54:52.094Z,580.5
2022-12-31T03:55:58.912Z,579.9
2022-12-31T03:58:37.829Z,579.5
2022-12-31T04:00:16.578Z,581.6
2022-12-31T04:01:55.334Z,580.7
2022-12-31T04:03:34.108Z,581.8
2022-12-31T04:04:41.416Z,579.8
2022-12-31T04:05:48.671Z,578.5
2022-12-31T04:07:27.379Z,577.6
2022-12-31T04:09:06.127Z,580
2022-12-31T04:10:44.891Z,580
2022-12-31T04:12:23.627Z,579.1
2022-12-31T04:14:02.370Z,579.8
2022-12-31T04:15:41.116Z,584
2022-12-31T04:17:19.867Z,582.7
2022-12-31T04:21:09.378Z,578.9
2022-12-31T04:22:17.542Z,580
2022-12-31T04:25:34.026Z,578.8
2022-12-31T04:27:20.830Z,580.2
2022-12-31T04:28:59.536Z,582.1
2022-12-31T04:30:38.242Z,580.1
2022-12-31T04:32:16.929Z,579.2
2022-12-31T04:33:55.672Z,577.9
2022-12-31T04:35:34.352Z,580.3
2022-12-31T04:37:13.025Z,581.3
2022-12-31T04:38:51.740Z,577.8
2022-12-31T04:40:30.420Z,578.7
2022-12-31T04:42:09.111Z,575.9
2022-12-31T04:43:47.868Z,579.8
2022-12-31T04:45:26.610Z,578.4
2022-12-31T04:47:05.318Z,577.3
2022-12-31T04:48:44.014Z,582.2
2022-12-31T04:50:22.776Z,578.6
2022-12-31T04:52:01.518Z,579.7
2022-12-31T04:53:40.222Z,580.6
2022-12-31T04:54:47.497Z,580.5
2022-12-31T04:55:54.779Z,582
2022-12-31T04:57:33.527Z,580
2022-12-31T04:59:12.310Z,577
2022-12-31T05:00:51.015Z,574.7
2022-12-31T05:02:29.838Z,578.9
2022-12-31T05:04:08.523Z,581.1
2022-12-31T05:05:47.218Z,579.8
2022-12-31T05:07:25.913Z,583.2
2022-12-31T05:09:04.614Z,580.7
2022-12-31T05:10:43.315Z,579.3
2022-12-31T05:11:50.596Z,576.5
2022-12-31T05:12:57.874Z,577.9
2022-12-31T05:14:36.582Z,578.4
2022-12-31T05:16:15.324Z,581.9
2022-12-31T05:17:54.018Z,583
2022-12-31T05:19:32.775Z,578.5
2022-12-31T05:21:11.535Z,579.9
2022-12-31T05:22:50.284Z,583
2022-12-31T05:24:29.029Z,580.2
2022-12-31T05:28:18.612Z,581.4
2022-12-31T05:29:25.220Z,582.8
2022-12-31T05:30:31.786Z,581.4
2022-12-31T05:31:38.336Z,583
2022-12-31T05:32:44.914Z,580
2022-12-31T05:33:51.473Z,581.9
2022-12-31T05:34:58.037Z,586.2
2022-12-31T05:36:04.606Z,585
2022-12-31T05:37:11.153Z,586.4
2022-12-31T05:38:17.710Z,583.6
2022-12-31T05:39:24.271Z,583
2022-12-31T05:40:30.829Z,583.1
2022-12-31T05:41:37.395Z,585.8
2022-12-31T05:42:43.992Z,583.9
2022-12-31T05:43:50.506Z,585.7
2022-12-31T05:44:57.143Z,585.5
2022-12-31T05:46:03.624Z,585.8
2022-12-31T05:47:10.190Z,588.2
2022-12-31T05:48:16.753Z,587.1
2022-12-31T05:49:23.363Z,583.1
2022-12-31T05:50:29.873Z,585.8
2022-12-31T05:51:36.446Z,588.7
2022-12-31T05:52:42.999Z,586.2
2022-12-31T05:53:49.584Z,587.9
2022-12-31T05:54:56.178Z,587.9
2022-12-31T05:56:02.701Z,587.2
2022-12-31T05:57:09.567Z,589.8
2022-12-31T05:58:16.277Z,589.3
2022-12-31T05:59:23.082Z,587.9
2022-12-31T06:00:29.876Z,586.5
2022-12-31T06:01:36.671Z,587.2
2022-12-31T06:02:43.478Z,584.1
2022-12-31T06:03:50.285Z,587.2
2022-12-31T06:04:57.060Z,587.4
2022-12-31T06:06:03.873Z,590.4
2022-12-31T06:07:10.663Z,588.3
2022-12-31T06:08:17.457Z,587.6
2022-12-31T06:09:24.256Z,585.4
2022-12-31T06:10:31.090Z,586.6
2022-12-31T06:13:10.624Z,587.2
2022-12-31T06:14:49.385Z,592.9
2022-12-31T06:16:28.118Z,591.1
2022-12-31T06:18:06.849Z,590.7
2022-12-31T06:19:14.133Z,590
2022-12-31T06:20:21.405Z,591
2022-12-31T06:22:00.185Z,589.2
2022-12-31T06:23:38.909Z,591.3
2022-12-31T06:25:17.626Z,592.7
2022-12-31T06:26:56.378Z,588.2
2022-12-31T06:28:35.117Z,589.8
2022-12-31T06:30:13.817Z,588.3
2022-12-31T06:31:52.519Z,585.4
2022-12-31T06:35:42.162Z,584
2022-12-31T06:36:50.330Z,584.4
2022-12-31T06:40:06.809Z,586
2022-12-31T06:41:53.619Z,586.3
2022-12-31T06:43:32.397Z,584.4
2022-12-31T06:45:11.014Z,587.3
2022-12-31T06:46:49.715Z,586.8
2022-12-31T06:48:28.406Z,587.4
2022-12-31T06:50:07.103Z,585.6
2022-12-31T06:51:45.864Z,589.2
2022-12-31T06:53:24.558Z,587.9
2022-12-31T06:55:03.295Z,585.1
2022-12-31T06:56:42.013Z,591.2
2022-12-31T06:58:20.708Z,586.7
2022-12-31T06:59:59.416Z,586.5
2022-12-31T07:01:38.104Z,586.6
2022-12-31T07:03:16.819Z,588.7
2022-12-31T07:04:55.568Z,588.5
2022-12-31T07:06:34.320Z,588.3
2022-12-31T07:08:13.083Z,587.3
2022-12-31T07:09:20.288Z,589.2
2022-12-31T07:10:27.569Z,589.5
2022-12-31T07:12:06.269Z,590
2022-12-31T07:13:45.021Z,590.6
2022-12-31T07:15:23.756Z,588.3
2022-12-31T07:17:02.524Z,586.4
2022-12-31T07:18:41.250Z,590.3
2022-12-31T07:20:20.069Z,589.3
2022-12-31T07:21:58.746Z,586.9
2022-12-31T07:23:37.510Z,590.6
2022-12-31T07:25:16.243Z,588.6
2022-12-31T07:26:23.598Z,590.6
2022-12-31T07:27:30.781Z,590.7
2022-12-31T07:29:09.530Z,592.2
2022-12-31T07:30:48.256Z,590.2
2022-12-31T07:32:27.021Z,593.4
2022-12-31T07:34:05.753Z,590.7
2022-12-31T07:35:44.498Z,592.5
2022-12-31T07:37:23.244Z,592.5
2022-12-31T07:39:01.987Z,591.4
2022-12-31T07:42:51.502Z,593.8
2022-12-31T07:43:59.653Z,591.3
2022-12-31T07:47:15.332Z,590.3
2022-12-31T07:48:21.852Z,596.2
2022-12-31T07:49:28.371Z,593.3
2022-12-31T07:50:34.902Z,590.5
2022-12-31T07:51:41.438Z,595
2022-12-31T07:52:48.134Z,592.7
2022-12-31T07:53:54.516Z,588.4
2022-12-31T07:55:01.011Z,593.5
2022-12-31T07:56:07.494Z,590.5
2022-12-31T07:57:13.975Z,591.5
2022-12-31T07:58:20.500Z,593.6
2022-12-31T07:59:27.010Z,597.3
2022-12-31T08:00:33.559Z,592.5
2022-12-31T08:01:39.873Z,596
2022-12-31T08:02:46.409Z,595
2022-12-31T08:03:52.936Z,591.9
2022-12-31T08:04:59.499Z,592.3
2022-12-31T08:06:05.935Z,594.6
2022-12-31T08:07:12.520Z,593.1
2022-12-31T08:08:19.037Z,592.9
2022-12-31T08:09:25.478Z,593.6
2022-12-31T08:10:31.964Z,594.4
2022-12-31T08:11:38.480Z,596.1
2022-12-31T08:12:45.005Z,595.1
2022-12-31T08:13:51.504Z,596.5
2022-12-31T08:14:58.219Z,597.5
2022-12-31T08:16:04.971Z,590.6
2022-12-31T08:17:11.747Z,597.5
2022-12-31T08:18:18.459Z,596.3
2022-12-31T08:19:25.163Z,592.7
2022-12-31T08:20:31.932Z,597.3
2022-12-31T08:21:38.641Z,592.9
2022-12-31T08:22:45.445Z,594
2022-12-31T08:23:52.193Z,595.9
2022-12-31T08:24:58.955Z,593.7
2022-12-31T08:26:05.734Z,594.3
2022-12-31T08:27:12.562Z,594.3
2022-12-31T08:28:19.301Z,596.6
2022-12-31T08:31:37.415Z,598.7
2022-12-31T08:33:12.957Z,594.7
2022-12-31T08:34:20.206Z,596
2022-12-31T08:35:58.913Z,594.4
2022-12-31T08:37:37.632Z,596.9
2022-12-31T08:39:16.328Z,598.6
2022-12-31T08:40:55.025Z,596.2
2022-12-31T08:42:33.748Z,595
2022-12-31T08:44:12.512Z,596.9
2022-12-31T08:45:51.153Z,597.6
2022-12-31T08:47:29.921Z,597.8
2022-12-31T08:49:08.566Z,596.4
2022-12-31T08:50:15.853Z,597.5
2022-12-31T08:53:16.543Z,595.1
2022-12-31T08:56:33.989Z,596.7
2022-12-31T08:59:51.429Z,598.1
2022-12-31T09:03:08.788Z,596.8
2022-12-31T09:06:26.232Z,596.9
2022-12-31T09:07:34.507Z,596.8
2022-12-31T09:09:43.697Z,597
2022-12-31T09:13:01.091Z,597.4
2022-12-31T09:16:16.772Z,599.3
2022-12-31T09:17:23.279Z,597.6
2022-12-31T09:18:29.763Z,596.6
2022-12-31T09:19:36.305Z,600.5
2022-12-31T09:20:42.787Z,600.2
2022-12-31T09:21:49.336Z,599.1
2022-12-31T09:22:55.842Z,600
2022-12-31T09:24:02.444Z,596.2
2022-12-31T09:25:08.976Z,600.5
2022-12-31T09:26:15.415Z,599.2
2022-12-31T09:27:21.893Z,600.3
2022-12-31T09:28:28.457Z,598
2022-12-31T09:29:34.960Z,598.7
2022-12-31T09:30:41.490Z,598.4
2022-12-31T09:31:48.020Z,599.3
2022-12-31T09:32:54.545Z,598.4
2022-12-31T09:34:01.199Z,597.9
2022-12-31T09:35:07.592Z,598.8
2022-12-31T09:36:14.133Z,599
2022-12-31T09:37:20.686Z,599.9
2022-12-31T09:38:27.240Z,600.1
2022-12-31T09:39:33.713Z,599.2
2022-12-31T09:40:40.146Z,600.8
2022-12-31T09:41:46.621Z,600.2
2022-12-31T09:42:53.233Z,600.4
2022-12-31T09:43:59.818Z,602.4
2022-12-31T09:45:06.622Z,599
2022-12-31T09:46:13.369Z,600.6
2022-12-31T09:47:20.183Z,602.5
2022-12-31T09:48:27.000Z,598.9
2022-12-31T09:49:33.723Z,601.1
2022-12-31T09:50:40.508Z,601.3
2022-12-31T09:51:47.333Z,601.3
2022-12-31T09:52:54.085Z,601.5
2022-12-31T09:54:00.860Z,599.3
2022-12-31T09:55:07.737Z,598.3
2022-12-31T09:56:14.493Z,597
2022-12-31T09:57:21.244Z,602.3
2022-12-31T10:00:39.378Z,603.5
2022-12-31T10:02:18.076Z,598
2022-12-31T10:03:56.825Z,601.5
2022-12-31T10:05:04.095Z,601.8
2022-12-31T10:06:11.369Z,600.5
2022-12-31T10:07:50.111Z,597
2022-12-31T10:09:28.869Z,597.4
2022-12-31T10:11:07.620Z,598
2022-12-31T10:12:46.371Z,597.7
2022-12-31T10:14:25.131Z,594.6
2022-12-31T10:16:03.882Z,597.9
2022-12-31T10:17:42.661Z,598.3
2022-12-31T10:19:21.446Z,596
2022-12-31T10:21:32.091Z,597.4
2022-12-31T10:23:29.438Z,595.3
2022-12-31T10:26:46.874Z,597.2
2022-12-31T10:30:04.388Z,598.4
2022-12-31T10:33:21.868Z,597.1
2022-12-31T10:36:39.184Z,598.5
2022-12-31T10:39:54.872Z,600.3
2022-12-31T10:41:01.420Z,596.7
2022-12-31T10:42:07.906Z,597
2022-12-31T10:43:14.397Z,597
2022-12-31T10:44:21.014Z,597
2022-12-31T10:45:27.449Z,594.8
2022-12-31T10:46:34.016Z,595.7
2022-12-31T10:47:40.549Z,594.5
2022-12-31T10:48:47.100Z,593.7
2022-12-31T10:49:53.647Z,598.4
2022-12-31T10:51:00.295Z,591
2022-12-31T10:52:06.750Z,595.2
2022-12-31T10:53:13.341Z,593.8
2022-12-31T10:54:19.837Z,596.7
2022-12-31T10:55:26.394Z,594
2022-12-31T10:56:32.957Z,595.3
2022-12-31T10:57:39.499Z,593.4
2022-12-31T10:58:46.102Z,593.2
2022-12-31T10:59:52.597Z,595.6
2022-12-31T11:00:59.229Z,594.8
2022-12-31T11:02:05.809Z,592.3
2022-12-31T11:03:12.251Z,594.2
2022-12-31T11:04:18.820Z,594
2022-12-31T11:05:25.320Z,596.7
2022-12-31T11:06:31.846Z,596.4
2022-12-31T11:07:38.605Z,593.8
2022-12-31T11:08:45.376Z,597.6
2022-12-31T11:09:52.154Z,591.5
2022-12-31T11:10:59.001Z,596.6
2022-12-31T11:12:05.712Z,599
2022-12-31T11:13:12.548Z,596.4
2022-12-31T11:14:19.312Z,595.3
2022-12-31T11:15:26.229Z,596.8
2022-12-31T11:16:32.900Z,596.5
2022-12-31T11:17:39.671Z,596.2
2022-12-31T11:18:46.441Z,596.8
2022-12-31T11:19:53.248Z,597.5
2022-12-31T11:21:00.028Z,598.1
2022-12-31T11:23:40.273Z,597.7
2022-12-31T11:25:18.985Z,600.1
2022-12-31T11:26:57.726Z,597.3
2022-12-31T11:28:36.482Z,595.6
2022-12-31T11:29:43.754Z,597.7
2022-12-31T11:30:51.015Z,598.8
2022-12-31T11:32:29.780Z,594.6
2022-12-31T11:34:08.515Z,597.5
2022-12-31T11:35:47.265Z,596.9
2022-12-31T11:37:26.007Z,598
2022-12-31T11:39:04.841Z,597
2022-12-31T11:40:43.567Z,598
2022-12-31T11:42:22.265Z,598.2
2022-12-31T11:46:11.788Z,597.1
2022-12-31T11:47:20.057Z,596.9
2022-12-31T11:50:37.518Z,595.9
2022-12-31T11:53:54.894Z,597.9
2022-12-31T11:57:12.352Z,598.4
2022-12-31T12:00:29.811Z,598
2022-12-31T12:03:47.257Z,598.1
2022-12-31T12:07:04.711Z,597.6
2022-12-31T12:10:22.234Z,600
2022-12-31T12:13:39.505Z,600.9
2022-12-31T12:16:56.949Z,597.6
2022-12-31T12:19:05.757Z,599.3
2022-12-31T12:20:14.386Z,600
2022-12-31T12:26:00.134Z,599.4
2022-12-31T12:29:17.590Z,597.9
2022-12-31T12:32:35.123Z,602.8
2022-12-31T12:35:52.578Z,603.5
2022-12-31T12:39:09.896Z,599.7
2022-12-31T12:42:27.334Z,599
2022-12-31T12:45:44.802Z,598.7
2022-12-31T12:49:02.427Z,599.2
2022-12-31T12:51:59.833Z,601.5
2022-12-31T12:53:08.187Z,599.5
2022-12-31T12:56:25.520Z,598
2022-12-31T12:59:42.860Z,596.7
2022-12-31T13:03:00.322Z,600.3
2022-12-31T13:08:46.030Z,600.3
2022-12-31T13:12:01.555Z,596.8
2022-12-31T13:13:07.818Z,598.9
2022-12-31T13:14:14.198Z,598.6
2022-12-31T13:15:20.454Z,599.9
2022-12-31T13:16:26.774Z,598
2022-12-31T13:17:33.067Z,599.7
2022-12-31T13:18:39.386Z,596
2022-12-31T13:19:45.836Z,595.6
2022-12-31T13:20:52.071Z,597
2022-12-31T13:21:58.389Z,597.1
2022-12-31T13:23:04.713Z,596.9
2022-12-31T13:24:11.023Z,598.6
2022-12-31T13:25:17.349Z,595.9
2022-12-31T13:26:23.691Z,593.4
2022-12-31T13:27:30.026Z,593.5
2022-12-31T13:28:36.373Z,597.2
2022-12-31T13:29:42.692Z,597.2
2022-12-31T13:30:48.934Z,595.8
2022-12-31T13:31:55.231Z,595.2
2022-12-31T13:33:01.502Z,595.1
2022-12-31T13:34:07.951Z,594.8
2022-12-31T13:35:14.213Z,594.8
2022-12-31T13:36:20.608Z,594.5
2022-12-31T13:37:26.871Z,590.7
2022-12-31T13:38:33.209Z,593
2022-12-31T13:39:39.591Z,592.4
2022-12-31T13:40:45.959Z,595.3
2022-12-31T13:41:52.320Z,595
2022-12-31T13:42:58.774Z,594.6
2022-12-31T13:44:05.133Z,594.3
2022-12-31T13:45:11.543Z,596.1
2022-12-31T13:46:17.935Z,594.5
2022-12-31T13:47:24.248Z,593.7
2022-12-31T13:48:30.704Z,592.9
2022-12-31T13:49:37.168Z,593.5
2022-12-31T13:50:43.493Z,590.9
2022-12-31T13:51:49.895Z,595.2
2022-12-31T13:52:56.399Z,595.3
2022-12-31T13:54:02.790Z,593.9
2022-12-31T13:55:09.279Z,593.3
2022-12-31T13:56:15.761Z,590.8
2022-12-31T13:57:22.224Z,591
2022-12-31T13:58:28.717Z,591.5
2022-12-31T13:59:35.233Z,594.6
2022-12-31T14:00:41.725Z,595.6
2022-12-31T14:01:48.214Z,592.1
2022-12-31T14:02:54.660Z,592.5
2022-12-31T14:04:01.192Z,593.4
2022-12-31T14:05:07.717Z,593.8
2022-12-31T14:06:14.194Z,593.6
2022-12-31T14:07:20.730Z,594.8
2022-12-31T14:10:15.967Z,596.5
2022-12-31T14:11:22.760Z,595.4
2022-12-31T14:12:29.582Z,593.3
2022-12-31T14:13:36.213Z,593.4
2022-12-31T14:14:43.041Z,595.4
2022-12-31T14:15:49.693Z,592.8
2022-12-31T14:16:56.475Z,592.6
2022-12-31T14:18:03.242Z,595
2022-12-31T14:19:09.944Z,596
2022-12-31T14:20:16.664Z,593.6
2022-12-31T14:21:23.370Z,594.4
2022-12-31T14:22:30.092Z,593.6
2022-12-31T14:23:36.806Z,593.4
2022-12-31T14:26:54.981Z,595.2
2022-12-31T14:28:30.674Z,596.6
2022-12-31T14:29:37.920Z,594.4
2022-12-31T14:31:16.621Z,591.5
2022-12-31T14:32:55.324Z,596.3
2022-12-31T14:34:34.036Z,593.7
2022-12-31T14:36:12.852Z,592.6
2022-12-31T14:37:51.539Z,594.8
2022-12-31T14:39:30.140Z,593.8
2022-12-31T14:41:08.900Z,593.5
2022-12-31T14:42:47.616Z,591.8
2022-12-31T14:44:26.315Z,591.8
2022-12-31T14:45:33.488Z,594.9
2022-12-31T14:48:34.323Z,594.4
2022-12-31T14:51:50.887Z,594.4
2022-12-31T14:53:45.877Z,593
2022-12-31T14:55:24.560Z,594.1
2022-12-31T14:57:03.290Z,593.6
2022-12-31T14:58:41.965Z,593.7
2022-12-31T15:00:20.670Z,596.1
2022-12-31T15:01:59.377Z,596.2
2022-12-31T15:03:06.619Z,593.3
2022-12-31T15:04:13.869Z,595.5
2022-12-31T15:05:52.654Z,593.1
2022-12-31T15:07:31.424Z,595.5
2022-12-31T15:09:10.141Z,593.1
2022-12-31T15:10:48.875Z,593.8
2022-12-31T15:12:27.651Z,594.1
2022-12-31T15:14:06.392Z,594.7
2022-12-31T15:15:45.103Z,594.8
2022-12-31T15:17:23.776Z,595.1
2022-12-31T15:19:02.563Z,593.7
2022-12-31T15:20:09.593Z,594.7
2022-12-31T15:21:16.833Z,593.2
2022-12-31T15:22:55.542Z,594.4
2022-12-31T15:24:34.258Z,594.3
2022-12-31T15:26:12.997Z,594.4
2022-12-31T15:27:51.707Z,592.4
2022-12-31T15:29:30.431Z,592.5
2022-12-31T15:33:38.430Z,595.4
2022-12-31T15:36:36.130Z,593.9
2022-12-31T15:37:43.100Z,594.2
2022-12-31T15:38:49.812Z,594.7
2022-12-31T15:39:56.504Z,594.8
2022-12-31T15:41:03.331Z,593.5
2022-12-31T15:42:10.091Z,592.8
2022-12-31T15:43:16.872Z,596.7
2022-12-31T15:44:23.655Z,592.4
2022-12-31T15:45:30.517Z,594.2
2022-12-31T15:46:37.272Z,593.3
2022-12-31T15:47:44.120Z,591.7
2022-12-31T15:48:50.818Z,594.7
2022-12-31T15:49:57.654Z,596.5
2022-12-31T15:51:04.400Z,592.6
2022-12-31T15:52:11.219Z,593.4
2022-12-31T15:53:18.051Z,591.8
2022-12-31T15:54:24.804Z,593.2
2022-12-31T15:55:31.578Z,592.7
2022-12-31T15:56:38.399Z,594.7
2022-12-31T15:57:45.165Z,592.3
2022-12-31T15:58:51.962Z,593.2
2022-12-31T15:59:58.962Z,594
2022-12-31T16:01:05.772Z,594.7
2022-12-31T16:02:12.440Z,588.3
2022-12-31T16:03:19.122Z,592.8
2022-12-31T16:04:52.796Z,592.6
2022-12-31T16:06:31.584Z,593.1
2022-12-31T16:08:10.251Z,592.7
2022-12-31T16:09:48.961Z,592
2022-12-31T16:11:27.733Z,591.1
2022-12-31T16:12:34.991Z,589.6
2022-12-31T16:13:42.214Z,595.4
2022-12-31T16:15:20.953Z,592.8
2022-12-31T16:16:59.691Z,592.3
2022-12-31T16:18:38.414Z,591
2022-12-31T16:20:17.172Z,591.6
2022-12-31T16:21:55.924Z,590.1
2022-12-31T16:23:34.678Z,591.1
2022-12-31T16:27:42.735Z,593.2
2022-12-31T16:29:01.244Z,591.1
2022-12-31T16:30:58.401Z,593.7
2022-12-31T16:32:04.963Z,591.6
2022-12-31T16:33:11.442Z,591.6
2022-12-31T16:34:17.985Z,592.8
2022-12-31T16:35:24.539Z,592.1
2022-12-31T16:36:31.106Z,590.8
2022-12-31T16:37:37.655Z,591.6
2022-12-31T16:38:44.210Z,589.5
2022-12-31T16:39:50.783Z,589.5
2022-12-31T16:40:57.333Z,591.1
2022-12-31T16:42:03.889Z,592.6
2022-12-31T16:43:10.443Z,591.6
2022-12-31T16:44:16.984Z,587.9
2022-12-31T16:45:23.535Z,590.3
2022-12-31T16:46:30.140Z,587.5
2022-12-31T16:47:36.696Z,591.7
2022-12-31T16:48:43.247Z,592.4
2022-12-31T16:49:49.756Z,590
2022-12-31T16:50:56.337Z,594.3
2022-12-31T16:52:02.843Z,592.5
2022-12-31T16:53:09.398Z,591.3
2022-12-31T16:54:15.960Z,589.4
2022-12-31T16:55:22.519Z,588.7
2022-12-31T16:56:29.064Z,589.8
2022-12-31T16:57:35.868Z,592.1
2022-12-31T16:58:42.650Z,588.4
2022-12-31T16:59:49.445Z,592
2022-12-31T17:00:56.296Z,590.7
2022-12-31T17:02:03.029Z,592.1
2022-12-31T17:03:09.833Z,590.4
2022-12-31T17:04:16.626Z,591.5
2022-12-31T17:05:23.462Z,591.5
2022-12-31T17:06:30.195Z,589.8
2022-12-31T17:07:37.063Z,590
2022-12-31T17:08:43.837Z,590.6
2022-12-31T17:09:50.612Z,591.5
2022-12-31T17:10:57.482Z,590.9
2022-12-31T17:13:37.535Z,592.9
2022-12-31T17:15:16.338Z,592.8
2022-12-31T17:16:55.003Z,591.1
2022-12-31T17:18:33.752Z,590.1
2022-12-31T17:19:41.104Z,591.1
2022-12-31T17:20:48.277Z,590.6
2022-12-31T17:22:27.147Z,592.3
2022-12-31T17:24:05.748Z,589.7
2022-12-31T17:25:44.491Z,592.2
2022-12-31T17:27:23.218Z,591.6
2022-12-31T17:29:01.957Z,592.4
2022-12-31T17:30:40.808Z,594.5
2022-12-31T17:32:19.445Z,592.7
2022-12-31T17:36:09.021Z,590.3
2022-12-31T17:37:15.645Z,589.6
2022-12-31T17:38:22.191Z,592.7
2022-12-31T17:39:28.784Z,591.1
2022-12-31T17:40:35.303Z,590.5
2022-12-31T17:41:41.853Z,593.1
2022-12-31T17:42:48.415Z,591.7
2022-12-31T17:43:54.980Z,591.8
2022-12-31T17:45:01.572Z,592
2022-12-31T17:46:08.084Z,591.2
2022-12-31T17:47:14.621Z,592.5
2022-12-31T17:48:21.203Z,589
2022-12-31T17:49:27.744Z,590
2022-12-31T17:50:34.347Z,589.9
2022-12-31T17:51:40.844Z,591.2
2022-12-31T17:52:47.398Z,589.7
2022-12-31T17:53:53.948Z,591
2022-12-31T17:55:00.498Z,593.3
2022-12-31T17:56:07.074Z,589.3
2022-12-31T17:57:13.635Z,591
2022-12-31T17:58:20.161Z,591.3
2022-12-31T17:59:26.755Z,590.2
2022-12-31T18:00:33.277Z,590.7
2022-12-31T18:01:39.824Z,591.1
2022-12-31T18:02:46.381Z,593.1
2022-12-31T18:03:52.987Z,594.3
2022-12-31T18:04:59.732Z,591.8
2022-12-31T18:06:06.553Z,590.6
2022-12-31T18:07:13.312Z,592.1
2022-12-31T18:08:20.121Z,593.7
2022-12-31T18:09:26.920Z,590
2022-12-31T18:10:33.680Z,591.1
2022-12-31T18:11:40.476Z,592.1
2022-12-31T18:12:47.353Z,588.8
2022-12-31T18:13:54.056Z,590
2022-12-31T18:15:00.987Z,591.9
2022-12-31T18:16:07.644Z,590.9
2022-12-31T18:17:14.434Z,591.3
2022-12-31T18:18:21.222Z,588.9
2022-12-31T18:21:00.488Z,588.6
2022-12-31T18:22:39.270Z,590.3
2022-12-31T18:24:17.908Z,592.3
2022-12-31T18:25:56.731Z,590.6
2022-12-31T18:27:03.923Z,591.6
2022-12-31T18:28:11.173Z,591.5
2022-12-31T18:29:49.992Z,593.9
2022-12-31T18:31:28.707Z,592.3
2022-12-31T18:33:07.396Z,593.1
2022-12-31T18:34:46.137Z,593
2022-12-31T18:36:24.922Z,592.5
2022-12-31T18:38:03.689Z,590.6
2022-12-31T18:39:42.339Z,588.6
2022-12-31T18:43:31.932Z,587
2022-12-31T18:44:38.418Z,589.1
2022-12-31T18:45:44.852Z,590
2022-12-31T18:46:51.328Z,589.2
2022-12-31T18:47:57.724Z,590.5
2022-12-31T18:49:04.226Z,588.4
2022-12-31T18:50:10.706Z,590.9